Time;durP1;ratioP1;P1;durP2;ratioP2;P2;SDS_P1;SDS_P2;PMS_P1;PMS_P2;Temp;Humidity;BMP_temperature;BMP_pressure;BME280_temperature;BME280_humidity;BME280_pressure;Samples;Min_cycle;Max_cycle;Signal;HPM_P1;HPM_P2
2023/03/15 00:01:50;;;;;;;2.60;1.00;;;8.60;69.90;;;;;;5032065;28;20022;-69
2023/03/15 00:04:15;;;;;;;2.70;0.85;;;8.60;69.90;;;;;;5032417;28;20032;-67
2023/03/15 00:06:41;;;;;;;2.17;1.10;;;8.60;69.90;;;;;;5031892;28;20112;-67
2023/03/15 00:09:07;;;;;;;3.97;0.90;;;8.50;69.90;;;;;;5032069;28;20107;-66
2023/03/15 00:11:32;;;;;;;2.90;0.90;;;8.50;70.00;;;;;;5033132;28;20084;-67
2023/03/15 00:14:00;;;;;;;2.00;0.98;;;8.50;69.40;;;;;;5054155;28;20064;-67
2023/03/15 00:16:26;;;;;;;2.13;0.90;;;8.50;69.60;;;;;;5055828;28;20115;-67
2023/03/15 00:18:55;;;;;;;2.78;1.10;;;8.50;69.90;;;;;;5037539;28;20552;-67
2023/03/15 00:21:21;;;;;;;3.83;1.05;;;8.50;69.30;;;;;;5056046;28;20438;-67
2023/03/15 00:23:48;;;;;;;9.68;1.25;;;8.60;69.20;;;;;;5055188;28;20466;-68
2023/03/15 00:26:14;;;;;;;2.17;0.80;;;8.50;68.90;;;;;;5037766;28;20029;-67
2023/03/15 00:28:41;;;;;;;4.50;1.08;;;8.50;69.10;;;;;;5055699;28;20055;-67
2023/03/15 00:31:15;;;;;;;4.50;0.93;;;8.60;69.20;;;;;;5055226;28;20025;-67
2023/03/15 00:33:41;;;;;;;3.28;1.05;;;8.50;69.70;;;;;;5055722;28;20061;-67
2023/03/15 00:36:08;;;;;;;4.15;1.08;;;8.50;68.80;;;;;;5054914;28;20067;-67
2023/03/15 00:38:36;;;;;;;4.43;0.80;;;8.50;68.80;;;;;;5055293;28;20045;-67
2023/03/15 00:41:09;;;;;;;1.38;0.80;;;8.50;68.70;;;;;;5055389;28;20442;-67
2023/03/15 00:43:35;;;;;;;5.20;1.20;;;8.50;68.80;;;;;;5055387;28;20036;-67
2023/03/15 00:46:02;;;;;;;3.22;1.05;;;8.50;68.60;;;;;;5054907;28;20446;-67
2023/03/15 00:48:28;;;;;;;3.97;0.98;;;8.50;68.00;;;;;;5055354;28;20033;-67
2023/03/15 00:51:04;;;;;;;1.35;0.88;;;8.60;68.00;;;;;;5054704;28;20521;-67
2023/03/15 00:53:30;;;;;;;3.90;1.02;;;8.60;67.10;;;;;;5037115;28;20090;-67
2023/03/15 00:55:55;;;;;;;1.95;0.90;;;8.60;67.10;;;;;;5054044;28;20032;-68
2023/03/15 00:58:21;;;;;;;2.85;1.23;;;8.60;66.60;;;;;;5054985;28;20024;-67
2023/03/15 01:00:47;;;;;;;1.77;0.80;;;8.60;66.30;;;;;;5054504;28;20035;-67
2023/03/15 01:03:13;;;;;;;2.05;1.00;;;8.60;66.10;;;;;;5037183;28;20033;-67
2023/03/15 01:05:39;;;;;;;2.47;0.82;;;8.60;66.00;;;;;;5035080;28;20041;-68
2023/03/15 01:08:05;;;;;;;3.10;1.17;;;8.70;65.90;;;;;;5034581;28;20071;-67
2023/03/15 01:10:34;;;;;;;6.07;1.20;;;8.60;65.90;;;;;;5035013;28;20053;-67
2023/03/15 01:12:59;;;;;;;4.13;1.10;;;8.60;65.90;;;;;;5034317;28;20176;-67
2023/03/15 01:15:25;;;;;;;3.97;1.00;;;8.70;66.00;;;;;;5034892;28;20072;-67
2023/03/15 01:17:51;;;;;;;0.75;0.70;;;8.60;66.10;;;;;;5034453;28;20017;-67
2023/03/15 01:20:17;;;;;;;1.95;0.85;;;8.60;66.20;;;;;;5034824;28;20052;-67
2023/03/15 01:22:43;;;;;;;1.52;0.80;;;8.60;66.30;;;;;;5034142;28;20112;-67
2023/03/15 01:25:09;;;;;;;5.20;0.90;;;8.70;66.20;;;;;;5033479;28;20021;-67
2023/03/15 01:27:34;;;;;;;3.20;1.15;;;8.70;66.20;;;;;;5034833;28;20038;-67
2023/03/15 01:30:00;;;;;;;2.63;0.80;;;8.70;66.50;;;;;;5034515;28;20033;-67
2023/03/15 01:32:26;;;;;;;2.03;0.90;;;8.70;70.60;;;;;;5034845;28;20439;-67
2023/03/15 01:34:52;;;;;;;2.85;0.90;;;8.60;74.40;;;;;;5034196;28;20048;-67
2023/03/15 01:37:17;;;;;;;3.22;1.00;;;8.60;76.60;;;;;;5034485;28;20037;-67
2023/03/15 01:39:43;;;;;;;1.17;1.02;;;8.60;78.50;;;;;;5034440;28;20161;-68
2023/03/15 01:42:09;;;;;;;0.70;0.63;;;8.50;80.00;;;;;;5034018;28;20108;-68
2023/03/15 01:44:47;;;;;;;0.85;0.85;;;8.40;80.10;;;;;;5034348;28;20121;-68
2023/03/15 01:47:13;;;;;;;1.13;0.80;;;8.30;80.00;;;;;;5034072;28;20036;-68
2023/03/15 01:49:39;;;;;;;1.83;0.90;;;8.10;80.40;;;;;;5033807;28;20029;-67
2023/03/15 01:52:34;;;;;;;0.95;0.82;;;8.00;80.50;;;;;;5033410;28;20036;-68
2023/03/15 01:55:07;;;;;;;1.27;0.93;;;7.90;80.80;;;;;;5031586;28;20041;-68
2023/03/15 01:57:43;;;;;;;1.20;0.90;;;7.80;80.30;;;;;;5034354;28;20040;-68
2023/03/15 02:00:15;;;;;;;1.63;1.00;;;7.70;80.80;;;;;;5033638;28;20033;-67
2023/03/15 02:02:46;;;;;;;1.33;0.90;;;7.60;81.40;;;;;;5033810;28;20048;-67
2023/03/15 02:05:19;;;;;;;1.55;1.20;;;7.60;81.50;;;;;;5033318;28;20039;-67
2023/03/15 02:07:49;;;;;;;1.33;0.90;;;7.50;82.50;;;;;;5033728;28;20034;-67
2023/03/15 02:10:24;;;;;;;1.63;1.13;;;7.50;82.30;;;;;;5033577;28;20032;-68
2023/03/15 02:12:52;;;;;;;1.90;0.90;;;7.50;82.50;;;;;;5033724;28;20089;-67
2023/03/15 02:15:18;;;;;;;1.40;0.95;;;7.60;82.70;;;;;;5033385;28;20476;-67
2023/03/15 02:17:45;;;;;;;1.10;0.85;;;7.50;82.40;;;;;;5015797;28;20120;-67
2023/03/15 02:20:26;;;;;;;1.40;1.08;;;7.40;83.00;;;;;;5038166;28;20202;-67
2023/03/15 02:22:55;;;;;;;3.17;1.10;;;7.40;83.80;;;;;;5053115;28;20032;-67
2023/03/15 02:25:34;;;;;;;2.97;1.33;;;7.20;85.40;;;;;;5053275;28;20056;-67
2023/03/15 02:28:02;;;;;;;1.48;1.17;;;7.20;85.20;;;;;;5035048;28;20105;-68
2023/03/15 02:30:28;;;;;;;1.88;1.30;;;7.30;84.60;;;;;;5052890;28;20505;-66
2023/03/15 02:32:53;;;;;;;1.80;1.10;;;7.20;84.20;;;;;;5052740;28;20025;-69
2023/03/15 02:35:28;;;;;;;2.42;1.27;;;7.20;84.40;;;;;;5052655;28;20023;-67
2023/03/15 02:37:53;;;;;;;3.28;1.20;;;7.10;84.50;;;;;;5052672;28;20056;-68
2023/03/15 02:40:21;;;;;;;1.45;1.17;;;7.10;84.00;;;;;;5053055;28;20469;-66
2023/03/15 02:42:54;;;;;;;2.20;1.20;;;7.00;84.30;;;;;;5053130;28;20028;-68
2023/03/15 02:45:20;;;;;;;2.15;1.48;;;7.00;84.10;;;;;;5053101;28;20033;-68
2023/03/15 02:47:47;;;;;;;1.58;1.30;;;6.90;84.40;;;;;;5052799;28;20044;-67
2023/03/15 02:50:13;;;;;;;1.45;1.30;;;6.90;84.30;;;;;;5052693;28;20078;-67
2023/03/15 02:52:39;;;;;;;1.60;1.45;;;6.80;84.80;;;;;;5053353;28;20037;-67
2023/03/15 02:55:05;;;;;;;2.65;1.50;;;6.80;85.10;;;;;;5052672;28;20108;-68
2023/03/15 02:57:31;;;;;;;2.35;1.48;;;6.80;84.50;;;;;;5053008;28;20033;-68
2023/03/15 02:59:58;;;;;;;1.60;1.50;;;6.80;84.20;;;;;;5052330;28;20081;-68
2023/03/15 03:02:23;;;;;;;3.15;1.70;;;6.80;83.80;;;;;;5052841;28;20036;-68
2023/03/15 03:04:51;;;;;;;3.60;1.60;;;6.80;83.60;;;;;;5048875;28;20021;-67
2023/03/15 03:07:17;;;;;;;2.67;1.40;;;6.70;83.30;;;;;;5052174;28;20060;-68
2023/03/15 03:09:43;;;;;;;3.85;1.75;;;6.70;83.40;;;;;;5052490;28;20033;-68
2023/03/15 03:12:09;;;;;;;3.45;1.50;;;6.70;83.00;;;;;;5052229;28;20032;-68
2023/03/15 03:14:34;;;;;;;2.15;1.70;;;6.70;82.90;;;;;;5052568;28;20021;-68
2023/03/15 03:17:00;;;;;;;1.45;1.35;;;6.60;83.10;;;;;;5051675;28;20099;-68
2023/03/15 03:19:26;;;;;;;3.85;1.50;;;6.60;83.50;;;;;;5052316;28;20381;-68
2023/03/15 03:21:53;;;;;;;4.50;1.85;;;6.70;83.40;;;;;;5052433;28;20040;-68
2023/03/15 03:24:19;;;;;;;2.65;1.90;;;6.60;83.30;;;;;;5051778;28;20029;-68
2023/03/15 03:26:45;;;;;;;2.72;2.03;;;6.60;84.30;;;;;;5052414;28;20025;-68
2023/03/15 03:29:11;;;;;;;2.47;1.58;;;6.60;83.30;;;;;;5051667;28;20040;-68
2023/03/15 03:31:38;;;;;;;5.40;2.22;;;6.60;82.90;;;;;;5052416;28;20033;-68
2023/03/15 03:34:03;;;;;;;4.22;1.90;;;6.50;83.20;;;;;;5051943;28;20021;-68
2023/03/15 03:36:29;;;;;;;3.78;2.03;;;6.50;83.60;;;;;;5052475;28;20082;-68
2023/03/15 03:38:56;;;;;;;4.28;1.77;;;6.40;82.90;;;;;;5052214;28;20098;-68
2023/03/15 03:41:22;;;;;;;2.55;1.63;;;6.40;82.30;;;;;;5051884;28;20458;-68
2023/03/15 03:43:47;;;;;;;6.07;1.98;;;6.40;81.70;;;;;;5051996;28;20021;-67
2023/03/15 03:46:13;;;;;;;4.75;1.98;;;6.40;80.50;;;;;;5051810;28;20029;-67
2023/03/15 03:48:39;;;;;;;5.82;1.70;;;6.30;80.70;;;;;;5056198;28;20056;-67
2023/03/15 03:51:05;;;;;;;6.32;1.67;;;6.20;79.50;;;;;;5055686;28;20033;-67
2023/03/15 03:53:30;;;;;;;7.70;1.85;;;6.30;79.00;;;;;;5056829;28;20025;-67
2023/03/15 03:55:56;;;;;;;7.68;1.92;;;6.20;77.70;;;;;;5056106;28;20476;-67
2023/03/15 03:58:22;;;;;;;9.60;2.08;;;6.10;76.60;;;;;;5055859;28;20025;-66
2023/03/15 04:00:47;;;;;;;6.25;2.10;;;6.10;76.20;;;;;;5056013;28;20025;-67
2023/03/15 04:03:13;;;;;;;6.63;1.88;;;6.10;76.10;;;;;;5055815;28;20037;-67
2023/03/15 04:05:40;;;;;;;6.93;1.70;;;6.10;76.30;;;;;;5056192;28;20021;-67
2023/03/15 04:08:06;;;;;;;8.90;2.03;;;6.10;75.90;;;;;;5055428;28;20492;-67
2023/03/15 04:10:33;;;;;;;5.30;1.73;;;6.10;75.20;;;;;;5055787;28;20029;-67
2023/03/15 04:13:00;;;;;;;8.43;1.73;;;6.10;74.50;;;;;;5037302;28;20025;-66
2023/03/15 04:15:26;;;;;;;6.30;1.70;;;6.00;74.30;;;;;;5056144;28;20032;-66
2023/03/15 04:17:54;;;;;;;5.15;1.67;;;6.10;74.20;;;;;;5055859;28;20576;-66
2023/03/15 04:20:26;;;;;;;6.80;2.10;;;6.00;73.30;;;;;;5055123;28;20040;-67
2023/03/15 04:22:53;;;;;;;7.88;1.70;;;6.00;72.70;;;;;;5055801;28;20031;-67
2023/03/15 04:25:20;;;;;;;7.95;1.73;;;6.00;71.70;;;;;;5055493;28;20021;-66
2023/03/15 04:27:57;;;;;;;4.85;1.40;;;5.90;71.50;;;;;;5055773;28;20083;-67
2023/03/15 04:30:27;;;;;;;6.40;1.70;;;5.90;72.10;;;;;;5055207;28;20032;-69
2023/03/15 04:32:57;;;;;;;6.30;1.48;;;5.90;71.10;;;;;;5055568;28;20025;-67
2023/03/15 04:35:30;;;;;;;10.05;1.60;;;6.00;71.50;;;;;;5055248;28;20043;-68
2023/03/15 04:37:57;;;;;;;9.77;1.88;;;5.90;70.70;;;;;;5055311;28;20456;-67
2023/03/15 04:40:25;;;;;;;6.97;1.65;;;5.90;70.90;;;;;;5054984;28;20021;-68
2023/03/15 04:42:54;;;;;;;6.85;1.65;;;5.90;70.60;;;;;;5055937;28;20029;-67
2023/03/15 04:45:23;;;;;;;9.20;1.65;;;5.90;70.40;;;;;;5055056;28;20040;-66
2023/03/15 04:47:50;;;;;;;6.22;1.50;;;5.90;70.20;;;;;;5055397;28;20040;-67
2023/03/15 04:50:16;;;;;;;9.48;1.92;;;5.90;70.20;;;;;;5054865;28;20420;-66
2023/03/15 04:52:42;;;;;;;9.38;1.95;;;5.90;70.00;;;;;;5055249;28;20029;-69
2023/03/15 04:55:08;;;;;;;5.05;1.50;;;5.80;69.30;;;;;;5054872;28;20044;-68
2023/03/15 04:57:34;;;;;;;7.95;1.67;;;5.80;69.60;;;;;;5036764;28;20029;-68
2023/03/15 05:00:00;;;;;;;8.25;1.73;;;5.80;69.40;;;;;;5044055;28;20037;-67
2023/03/15 05:02:26;;;;;;;6.82;1.70;;;5.80;69.50;;;;;;5034775;28;20028;-67
2023/03/15 05:04:52;;;;;;;16.73;2.10;;;5.70;69.60;;;;;;5035162;28;20057;-68
2023/03/15 05:07:17;;;;;;;8.00;1.63;;;5.70;69.90;;;;;;5034792;28;20122;-68
2023/03/15 05:09:45;;;;;;;10.68;1.95;;;5.70;69.40;;;;;;5035024;28;20045;-67
2023/03/15 05:12:11;;;;;;;7.50;1.67;;;5.70;69.40;;;;;;5034635;28;20386;-68
2023/03/15 05:14:37;;;;;;;7.38;1.92;;;5.70;69.10;;;;;;5034789;28;20373;-68
2023/03/15 05:17:03;;;;;;;9.77;1.73;;;5.70;69.20;;;;;;5035143;28;20033;-67
2023/03/15 05:19:33;;;;;;;8.35;1.45;;;5.70;69.40;;;;;;5034503;28;20033;-68
2023/03/15 05:22:00;;;;;;;8.38;1.83;;;5.70;68.80;;;;;;5034947;28;20033;-67
2023/03/15 05:24:26;;;;;;;9.57;1.83;;;5.60;68.30;;;;;;5034326;28;20029;-68
2023/03/15 05:26:53;;;;;;;9.40;1.88;;;5.60;68.60;;;;;;5034656;28;20044;-68
2023/03/15 05:29:20;;;;;;;8.18;1.98;;;5.60;68.90;;;;;;5034243;28;20056;-67
2023/03/15 05:31:46;;;;;;;8.00;1.48;;;5.60;68.70;;;;;;5034620;28;20072;-69
2023/03/15 05:34:12;;;;;;;8.40;1.75;;;5.60;68.10;;;;;;5034139;28;20117;-68
2023/03/15 05:36:38;;;;;;;6.50;1.50;;;5.50;68.10;;;;;;5034263;28;20423;-68
2023/03/15 05:39:03;;;;;;;9.88;1.70;;;5.50;67.60;;;;;;5034297;28;20405;-67
2023/03/15 05:41:30;;;;;;;8.35;1.67;;;5.40;68.00;;;;;;5033536;28;20036;-68
2023/03/15 05:43:55;;;;;;;8.25;1.65;;;5.50;68.40;;;;;;5034027;28;20116;-66
2023/03/15 05:46:21;;;;;;;7.53;1.60;;;5.50;68.00;;;;;;5033481;28;20574;-67
2023/03/15 05:48:47;;;;;;;9.48;2.28;;;5.60;67.60;;;;;;5034072;28;20030;-68
2023/03/15 05:51:13;;;;;;;7.07;1.48;;;5.60;66.70;;;;;;5033271;28;20029;-68
2023/03/15 05:53:39;;;;;;;7.43;1.88;;;5.50;66.70;;;;;;5033773;28;20481;-68
2023/03/15 05:56:05;;;;;;;9.38;1.60;;;5.50;66.90;;;;;;5033985;28;20112;-68
2023/03/15 05:58:31;;;;;;;5.70;1.38;;;5.50;66.80;;;;;;5033148;28;20389;-68
2023/03/15 06:00:56;;;;;;;7.30;1.60;;;5.60;67.30;;;;;;5016123;28;20360;-67
2023/03/15 06:03:22;;;;;;;9.70;1.50;;;5.60;66.90;;;;;;5033300;28;20355;-67
2023/03/15 06:05:48;;;;;;;7.97;1.65;;;5.60;66.40;;;;;;5033449;28;20025;-67
2023/03/15 06:08:13;;;;;;;5.65;1.25;;;5.70;65.30;;;;;;5033441;28;20027;-67
2023/03/15 06:10:39;;;;;;;7.45;1.65;;;5.60;65.30;;;;;;5033336;28;20034;-68
2023/03/15 06:13:05;;;;;;;10.48;2.05;;;5.60;65.40;;;;;;5033922;28;20030;-67
2023/03/15 06:15:31;;;;;;;7.75;1.80;;;5.60;65.50;;;;;;5037642;28;20028;-68
2023/03/15 06:17:57;;;;;;;7.50;2.00;;;5.50;65.60;;;;;;5053570;28;20025;-68
2023/03/15 06:20:23;;;;;;;11.48;1.80;;;5.60;64.30;;;;;;5053055;28;20379;-68
2023/03/15 06:22:48;;;;;;;7.35;1.50;;;5.60;63.90;;;;;;5053211;28;20028;-68
2023/03/15 06:25:14;;;;;;;9.00;1.75;;;5.60;63.60;;;;;;5052912;28;20024;-66
2023/03/15 06:27:40;;;;;;;8.20;1.58;;;5.60;63.40;;;;;;5053344;28;20072;-67
2023/03/15 06:30:06;;;;;;;5.13;1.35;;;5.60;63.70;;;;;;5053460;28;20490;-67
2023/03/15 06:32:32;;;;;;;5.78;1.58;;;5.70;63.30;;;;;;5052914;28;20029;-69
2023/03/15 06:34:57;;;;;;;5.72;1.52;;;5.60;63.30;;;;;;5053140;28;20024;-68
2023/03/15 06:37:23;;;;;;;8.18;1.60;;;5.70;63.60;;;;;;5052878;28;20029;-67
2023/03/15 06:39:50;;;;;;;9.40;1.52;;;5.70;63.50;;;;;;5053263;28;20060;-67
2023/03/15 06:42:16;;;;;;;5.50;1.48;;;5.80;62.70;;;;;;5052298;28;20611;-67
2023/03/15 06:44:42;;;;;;;6.80;1.77;;;5.90;63.00;;;;;;5052828;28;20363;-66
2023/03/15 06:47:09;;;;;;;9.27;1.73;;;5.80;62.40;;;;;;5052672;28;20029;-67
2023/03/15 06:49:35;;;;;;;6.75;1.52;;;5.90;62.40;;;;;;5052668;28;20039;-67
2023/03/15 06:52:02;;;;;;;12.10;2.20;;;5.90;61.80;;;;;;5038904;28;20116;-66
2023/03/15 06:54:27;;;;;;;5.78;1.50;;;6.00;62.20;;;;;;5032619;28;20037;-67
2023/03/15 06:56:53;;;;;;;10.48;1.83;;;6.00;62.40;;;;;;5032878;28;20026;-68
2023/03/15 06:59:19;;;;;;;6.82;1.52;;;6.00;61.60;;;;;;5032291;28;20026;-68
2023/03/15 07:01:44;;;;;;;8.02;1.70;;;6.00;60.90;;;;;;5032835;28;20367;-69
2023/03/15 07:04:10;;;;;;;6.38;2.00;;;5.90;61.10;;;;;;5014819;28;20025;-68
2023/03/15 07:06:36;;;;;;;7.85;1.23;;;6.00;60.80;;;;;;5031638;28;20041;-66
2023/03/15 07:09:02;;;;;;;9.05;1.55;;;6.00;60.40;;;;;;5032699;28;20061;-66
2023/03/15 07:11:28;;;;;;;12.18;1.55;;;6.00;60.00;;;;;;5032179;28;20101;-67
2023/03/15 07:13:54;;;;;;;4.07;1.40;;;6.10;60.30;;;;;;5032600;28;20041;-67
2023/03/15 07:16:19;;;;;;;8.68;1.50;;;6.00;59.90;;;;;;5031957;28;20033;-68
2023/03/15 07:18:45;;;;;;;3.00;1.23;;;6.00;59.50;;;;;;5032251;28;20057;-67
2023/03/15 07:21:11;;;;;;;7.85;1.42;;;6.10;59.80;;;;;;5032320;28;20107;-67
2023/03/15 07:23:36;;;;;;;9.82;1.92;;;6.20;59.90;;;;;;5031972;28;20028;-68
2023/03/15 07:26:02;;;;;;;6.45;1.75;;;6.10;59.20;;;;;;5032010;28;20041;-67
2023/03/15 07:28:28;;;;;;;10.60;1.90;;;6.20;58.70;;;;;;5031981;28;20034;-67
2023/03/15 07:30:56;;;;;;;8.43;1.58;;;6.10;58.80;;;;;;5032319;28;20458;-67
2023/03/15 07:33:23;;;;;;;8.90;1.50;;;6.10;58.50;;;;;;5031880;28;20030;-67
2023/03/15 07:35:49;;;;;;;7.95;1.27;;;6.20;58.90;;;;;;5032493;28;20048;-67
2023/03/15 07:38:15;;;;;;;8.00;1.77;;;6.10;58.20;;;;;;5031436;28;20540;-69
2023/03/15 07:40:41;;;;;;;10.07;2.15;;;6.10;58.30;;;;;;5032083;28;20021;-67
2023/03/15 07:43:07;;;;;;;7.38;1.45;;;6.10;58.40;;;;;;5032467;28;20029;-68
2023/03/15 07:45:33;;;;;;;6.95;1.40;;;6.20;58.60;;;;;;5031778;28;20025;-68
2023/03/15 07:47:59;;;;;;;10.02;1.95;;;6.30;58.50;;;;;;5031900;28;20030;-68
2023/03/15 07:50:25;;;;;;;11.55;1.85;;;6.30;57.90;;;;;;5031531;28;20034;-68
2023/03/15 07:52:51;;;;;;;6.95;1.90;;;6.50;57.70;;;;;;5031950;28;20021;-68
2023/03/15 07:55:17;;;;;;;10.23;1.80;;;6.70;57.90;;;;;;5031736;28;20080;-68
2023/03/15 07:57:42;;;;;;;10.23;1.88;;;6.90;58.00;;;;;;5032472;28;20022;-68
2023/03/15 08:00:10;;;;;;;6.85;1.63;;;7.20;57.00;;;;;;5032261;28;20176;-67
2023/03/15 08:02:36;;;;;;;9.18;2.17;;;7.40;56.00;;;;;;5031540;28;20029;-67
2023/03/15 08:05:03;;;;;;;9.05;1.63;;;7.60;54.90;;;;;;5032253;28;20029;-67
2023/03/15 08:07:29;;;;;;;10.40;1.73;;;7.80;54.00;;;;;;5031418;28;20530;-67
2023/03/15 08:09:56;;;;;;;6.72;1.60;;;8.10;53.80;;;;;;5032210;28;20037;-67
2023/03/15 08:12:23;;;;;;;4.75;1.58;;;8.40;53.00;;;;;;5031707;28;20138;-67
2023/03/15 08:14:50;;;;;;;10.93;1.52;;;8.90;52.10;;;;;;5032334;28;20057;-67
2023/03/15 08:17:16;;;;;;;7.00;1.40;;;9.60;51.20;;;;;;5032244;28;20119;-67
2023/03/15 08:19:42;;;;;;;4.22;1.95;;;10.20;49.90;;;;;;5031439;28;20030;-67
2023/03/15 08:22:08;;;;;;;7.38;1.30;;;10.90;48.30;;;;;;5042955;28;20028;-67
2023/03/15 08:24:34;;;;;;;4.95;1.50;;;11.60;46.30;;;;;;5051560;28;20024;-67
2023/03/15 08:27:00;;;;;;;6.00;1.67;;;11.70;45.60;;;;;;5051977;28;20427;-67
2023/03/15 08:29:26;;;;;;;8.18;1.73;;;11.90;44.60;;;;;;5051523;28;20083;-68
2023/03/15 08:31:52;;;;;;;9.00;1.98;;;11.90;44.20;;;;;;5051891;28;20029;-68
2023/03/15 08:34:18;;;;;;;5.70;1.38;;;11.60;44.70;;;;;;5054389;28;20028;-67
2023/03/15 08:36:46;;;;;;;8.77;1.80;;;11.70;44.60;;;;;;5055092;28;20035;-66
2023/03/15 08:39:12;;;;;;;5.60;1.67;;;11.20;44.20;;;;;;5055008;28;20049;-67
2023/03/15 08:41:38;;;;;;;5.55;1.83;;;11.10;44.30;;;;;;5054848;28;20112;-67
2023/03/15 08:44:03;;;;;;;5.00;1.48;;;11.00;44.80;;;;;;5055310;28;20035;-67
2023/03/15 08:46:29;;;;;;;7.78;1.95;;;11.00;45.40;;;;;;5054876;28;20033;-67
2023/03/15 08:48:55;;;;;;;6.05;1.80;;;11.10;45.50;;;;;;5055060;28;20025;-67
2023/03/15 08:51:21;;;;;;;8.43;2.03;;;10.90;45.20;;;;;;5054708;28;20083;-67
2023/03/15 08:53:46;;;;;;;9.43;2.10;;;10.80;45.90;;;;;;5055225;28;20098;-67
2023/03/15 08:56:12;;;;;;;5.32;2.05;;;10.60;46.80;;;;;;5055296;28;20040;-67
2023/03/15 08:58:38;;;;;;;10.48;1.95;;;10.50;46.50;;;;;;5054414;28;20040;-67
2023/03/15 09:01:04;;;;;;;5.80;1.60;;;10.50;46.30;;;;;;5041924;28;20079;-67
2023/03/15 09:03:33;;;;;;;7.30;1.33;;;10.30;45.50;;;;;;5034827;28;20029;-68
2023/03/15 09:05:59;;;;;;;4.60;1.73;;;10.20;45.30;;;;;;5034911;28;20029;-68
2023/03/15 09:08:25;;;;;;;7.95;1.52;;;10.00;45.10;;;;;;5034428;28;20029;-68
2023/03/15 09:10:57;;;;;;;4.32;1.40;;;9.90;45.40;;;;;;5034925;28;20030;-67
2023/03/15 09:13:24;;;;;;;11.52;1.92;;;9.90;45.90;;;;;;5034221;28;20526;-68
2023/03/15 09:15:51;;;;;;;6.78;1.55;;;10.00;46.20;;;;;;5034960;28;20029;-67
2023/03/15 09:18:17;;;;;;;7.85;2.38;;;10.00;46.00;;;;;;5034647;28;20432;-67
2023/03/15 09:20:43;;;;;;;8.75;1.83;;;10.00;45.90;;;;;;5034142;28;20053;-68
2023/03/15 09:23:09;;;;;;;9.65;1.73;;;10.00;45.90;;;;;;5034471;28;20058;-67
2023/03/15 09:25:38;;;;;;;8.65;1.83;;;10.00;45.90;;;;;;5034221;28;20043;-67
2023/03/15 09:28:05;;;;;;;5.40;1.50;;;10.00;46.60;;;;;;5034474;28;20547;-67
2023/03/15 09:30:31;;;;;;;11.38;2.08;;;10.10;46.80;;;;;;5034207;28;20067;-67
2023/03/15 09:32:56;;;;;;;8.05;1.80;;;9.80;47.10;;;;;;5034417;28;20057;-67
2023/03/15 09:35:22;;;;;;;6.10;2.00;;;9.80;47.40;;;;;;5034207;28;20063;-68
2023/03/15 09:37:49;;;;;;;6.30;1.88;;;9.70;47.50;;;;;;5034378;28;20515;-68
2023/03/15 09:40:37;;;;;;;7.32;1.52;;;9.50;47.90;;;;;;5016864;28;20026;-68
2023/03/15 09:43:05;;;;;;;6.30;1.40;;;9.40;47.50;;;;;;5033459;28;20067;-67
2023/03/15 09:45:58;;;;;;;9.50;2.10;;;9.70;47.50;;;;;;5032897;28;20029;-67
2023/03/15 09:48:36;;;;;;;7.60;1.50;;;9.80;45.80;;;;;;5034300;28;20116;-67
2023/03/15 09:51:27;;;;;;;8.70;2.40;;;9.80;45.70;;;;;;5034713;28;20036;-66
2023/03/15 09:53:59;;;;;;;7.75;1.77;;;10.00;45.50;;;;;;5034446;28;20087;-68
2023/03/15 09:57:01;;;;;;;6.53;1.80;;;10.20;45.10;;;;;;5034001;28;20033;-68
2023/03/15 09:59:33;;;;;;;8.27;1.70;;;9.90;43.70;;;;;;5033924;28;20027;-68
2023/03/15 10:02:03;;;;;;;7.70;2.13;;;9.90;45.50;;;;;;5034037;28;20021;-68
2023/03/15 10:04:36;;;;;;;9.68;1.80;;;9.90;44.50;;;;;;5034015;28;20025;-68
2023/03/15 10:07:05;;;;;;;7.00;1.73;;;10.00;45.30;;;;;;5016414;28;20359;-67
2023/03/15 10:09:32;;;;;;;6.90;1.40;;;10.00;43.60;;;;;;5033559;28;20064;-68
2023/03/15 10:12:12;;;;;;;13.98;1.50;;;10.10;42.60;;;;;;5033586;28;20463;-67
2023/03/15 10:14:40;;;;;;;12.50;1.80;;;10.20;43.20;;;;;;5033540;28;20373;-67
2023/03/15 10:17:19;;;;;;;4.53;1.58;;;10.30;43.70;;;;;;5033694;28;20029;-68
2023/03/15 10:19:48;;;;;;;5.97;1.80;;;10.40;43.30;;;;;;5033239;28;20490;-67
2023/03/15 10:22:13;;;;;;;5.18;1.73;;;10.60;43.50;;;;;;5033628;28;20075;-67
2023/03/15 10:24:54;;;;;;;4.97;1.35;;;10.30;41.40;;;;;;5033513;28;20025;-67
2023/03/15 10:27:20;;;;;;;4.13;1.30;;;10.10;42.20;;;;;;5015740;28;20470;-67
2023/03/15 10:29:50;;;;;;;5.88;1.40;;;10.10;42.10;;;;;;5015021;28;20103;-67
2023/03/15 10:32:18;;;;;;;4.75;1.65;;;9.80;42.40;;;;;;5048664;28;20021;-67
2023/03/15 10:34:51;;;;;;;6.57;1.60;;;10.00;42.50;;;;;;5052971;28;20028;-68
2023/03/15 10:37:22;;;;;;;6.20;1.67;;;10.00;42.40;;;;;;5053031;28;20054;-68
2023/03/15 10:39:54;;;;;;;9.05;1.65;;;9.90;42.60;;;;;;5053392;28;20048;-68
2023/03/15 10:42:31;;;;;;;5.18;1.30;;;9.80;42.20;;;;;;5053215;28;20029;-68
2023/03/15 10:44:59;;;;;;;4.72;1.67;;;9.90;43.10;;;;;;5053304;28;20029;-67
2023/03/15 10:47:27;;;;;;;9.18;2.70;;;9.90;42.40;;;;;;5053102;28;20025;-67
2023/03/15 10:49:57;;;;;;;5.40;2.20;;;9.90;42.90;;;;;;5052947;28;20588;-66
2023/03/15 10:52:35;;;;;;;4.25;1.60;;;9.80;43.10;;;;;;5053011;28;20056;-67
2023/03/15 10:55:14;;;;;;;6.50;1.33;;;9.60;43.10;;;;;;5052752;28;20490;-67
2023/03/15 10:57:51;;;;;;;7.03;1.50;;;9.60;42.70;;;;;;5052389;28;20112;-67
2023/03/15 11:00:30;;;;;;;8.05;1.48;;;9.60;42.90;;;;;;5052780;28;20028;-68
2023/03/15 11:03:06;;;;;;;5.45;1.50;;;9.70;43.80;;;;;;5037769;28;20143;-67
2023/03/15 11:05:53;;;;;;;3.05;1.40;;;9.70;43.80;;;;;;5032603;28;20021;-67
2023/03/15 11:08:22;;;;;;;6.63;1.85;;;9.80;42.50;;;;;;5033031;28;20048;-67
2023/03/15 11:10:58;;;;;;;10.35;2.00;;;9.60;42.60;;;;;;5032228;28;20104;-68
2023/03/15 11:13:35;;;;;;;7.72;1.92;;;9.70;43.20;;;;;;5032906;28;20021;-67
2023/03/15 11:16:08;;;;;;;5.45;1.20;;;9.60;41.70;;;;;;5033142;28;20036;-67
2023/03/15 11:19:02;;;;;;;5.13;1.45;;;9.60;41.70;;;;;;5032330;28;20041;-67
2023/03/15 11:21:33;;;;;;;6.10;1.88;;;9.60;41.00;;;;;;5033110;28;20026;-67
2023/03/15 11:24:02;;;;;;;5.40;2.00;;;9.60;41.70;;;;;;5032347;28;20037;-66
2023/03/15 11:26:31;;;;;;;5.13;1.30;;;9.80;41.60;;;;;;5032382;28;20037;-68
2023/03/15 11:29:18;;;;;;;6.13;2.33;;;9.90;41.80;;;;;;5032349;28;20056;-67
2023/03/15 11:31:44;;;;;;;3.22;1.20;;;9.90;41.50;;;;;;5032331;28;20481;-67
2023/03/15 11:34:47;;;;;;;4.30;1.70;;;9.90;41.70;;;;;;5032488;28;20029;-68
2023/03/15 11:37:33;;;;;;;8.13;2.05;;;9.80;40.70;;;;;;5032412;28;20115;-67
2023/03/15 11:40:20;;;;;;;5.18;1.75;;;9.80;41.30;;;;;;5032118;28;20049;-68
2023/03/15 11:43:02;;;;;;;5.82;1.67;;;9.80;41.60;;;;;;5032342;28;20107;-68
2023/03/15 11:45:33;;;;;;;6.35;1.73;;;9.70;42.70;;;;;;5032568;28;20017;-67
2023/03/15 11:48:39;;;;;;;4.88;1.67;;;9.40;42.50;;;;;;5032436;28;20025;-67
2023/03/15 11:51:07;;;;;;;10.90;1.90;;;9.40;42.70;;;;;;5005113;28;20128;-67
2023/03/15 11:53:38;;;;;;;5.32;1.48;;;9.40;41.80;;;;;;5031957;28;20030;-67
2023/03/15 11:56:20;;;;;;;;;;;9.30;41.60;;;;;;5032682;28;20025;-67
2023/03/15 11:59:03;;;;;;;6.25;1.63;;;9.20;41.50;;;;;;5031984;28;19908;-66
2023/03/15 12:01:29;;;;;;;3.88;1.48;;;9.10;42.10;;;;;;5032473;28;20061;-68
2023/03/15 12:04:23;;;;;;;8.63;1.60;;;9.10;41.70;;;;;;5031855;28;20063;-68
2023/03/15 12:06:53;;;;;;;3.78;1.40;;;9.10;41.90;;;;;;5031743;28;20053;-66
2023/03/15 12:09:30;;;;;;;6.60;1.60;;;9.10;42.20;;;;;;5035437;28;20065;-67
2023/03/15 12:12:26;;;;;;;7.10;2.03;;;9.00;42.60;;;;;;5035591;28;20112;-67
2023/03/15 12:15:13;;;;;;;5.82;1.50;;;9.10;42.50;;;;;;5020997;28;20041;-67
2023/03/15 12:17:50;;;;;;;5.70;1.58;;;9.20;43.10;;;;;;5035293;28;20026;-68
2023/03/15 12:20:18;;;;;;;9.35;1.63;;;9.30;42.50;;;;;;5035971;28;20036;-67
2023/03/15 12:23:06;;;;;;;6.15;1.73;;;9.40;41.50;;;;;;5035600;28;20026;-67
2023/03/15 12:26:05;;;;;;;4.82;1.80;;;9.40;41.60;;;;;;5018087;28;20363;-66
2023/03/15 12:28:49;;;;;;;7.32;2.03;;;9.40;41.70;;;;;;5054589;28;20399;-67
2023/03/15 12:31:15;;;;;;;4.47;1.73;;;9.60;42.40;;;;;;5055505;28;20032;-66
2023/03/15 12:33:57;;;;;;;6.47;1.60;;;9.60;42.10;;;;;;5055359;28;20025;-66
2023/03/15 12:36:38;;;;;;;7.70;2.30;;;9.60;41.50;;;;;;5055312;28;20037;-66
2023/03/15 12:39:16;;;;;;;6.50;1.70;;;9.70;41.30;;;;;;5055072;28;20049;-68
2023/03/15 12:41:47;;;;;;;5.22;1.55;;;9.70;41.40;;;;;;5054927;28;20027;-67
2023/03/15 12:44:25;;;;;;;7.25;1.95;;;9.70;41.20;;;;;;5055445;28;20362;-66
2023/03/15 12:46:51;;;;;;;9.32;1.77;;;9.70;41.50;;;;;;5054886;28;20033;-67
2023/03/15 12:49:23;;;;;;;3.25;1.35;;;9.80;41.60;;;;;;5055052;28;20028;-67
2023/03/15 12:51:59;;;;;;;7.10;1.73;;;9.70;40.30;;;;;;5054764;28;20020;-67
2023/03/15 12:54:32;;;;;;;7.13;1.30;;;9.70;40.20;;;;;;5054802;28;20029;-67
2023/03/15 12:57:01;;;;;;;6.32;1.70;;;9.80;39.80;;;;;;5054565;28;20087;-66
2023/03/15 12:59:40;;;;;;;5.28;1.60;;;9.80;39.50;;;;;;5055036;28;20103;-67
2023/03/15 13:02:50;;;;;;;6.72;1.60;;;9.90;40.20;;;;;;5055119;28;20025;-67
2023/03/15 13:05:42;;;;;;;5.75;1.65;;;10.00;39.80;;;;;;5008844;28;20037;-66
2023/03/15 13:08:23;;;;;;;8.25;2.10;;;10.00;39.80;;;;;;5041917;28;20049;-67